Time;durP1;ratioP1;P1;durP2;ratioP2;P2;SDS_P1;SDS_P2;PMS_P1;PMS_P2;Temp;Humidity;BMP_temperature;BMP_pressure;BME280_temperature;BME280_humidity;BME280_pressure;Samples;Min_cycle;Max_cycle;Signal;HPM_P1;HPM_P2
2022/10/15 00:00:00;;;;;;;1.37;0.10;;;;;;;16.79;92.48;99613.34;5007812;28;20777;-74
2022/10/15 00:02:26;;;;;;;3.30;0.20;;;;;;;16.83;92.06;99620.59;5008531;28;20399;-74
2022/10/15 00:04:51;;;;;;;3.80;0.30;;;;;;;16.85;92.23;99625.78;5030020;28;20400;-74
2022/10/15 00:07:16;;;;;;;0.20;0.10;;;;;;;16.83;92.63;99617.88;5029832;28;20445;-74
2022/10/15 00:09:42;;;;;;;0.10;0.10;;;;;;;16.83;92.57;99611.59;5015608;28;20425;-74
2022/10/15 00:12:07;;;;;;;1.30;0.30;;;;;;;16.83;92.54;99615.13;5028595;28;20396;-74
2022/10/15 00:14:32;;;;;;;0.10;0.10;;;;;;;16.86;92.57;99609.03;5022116;28;20418;-74
2022/10/15 00:16:57;;;;;;;1.23;0.20;;;;;;;16.88;92.55;99611.50;5029947;28;20487;-74
2022/10/15 00:19:23;;;;;;;3.37;0.50;;;;;;;16.85;92.62;99612.09;5018658;28;20430;-74
2022/10/15 00:21:48;;;;;;;0.90;0.10;;;;;;;16.76;93.12;99611.22;5027140;28;20741;-74
2022/10/15 00:24:13;;;;;;;2.40;0.40;;;;;;;16.76;93.54;99622.16;5029587;28;20954;-74
2022/10/15 00:26:38;;;;;;;0.20;0.20;;;;;;;16.77;93.45;99604.59;5028408;28;20407;-74
2022/10/15 00:29:04;;;;;;;0.80;0.13;;;;;;;16.80;93.42;99610.28;5026864;28;20878;-74
2022/10/15 00:31:30;;;;;;;0.10;0.10;;;;;;;16.83;93.59;99615.13;5023059;28;20407;-74
2022/10/15 00:33:58;;;;;;;0.10;0.10;;;;;;;16.83;93.46;99611.59;5003519;28;20759;-74
2022/10/15 00:36:27;;;;;;;0.20;0.10;;;;;;;16.82;93.51;99610.81;5019295;28;20399;-74
2022/10/15 00:38:52;;;;;;;0.43;0.10;;;;;;;16.85;93.28;99614.84;5029238;28;20450;-74
2022/10/15 00:41:31;;;;;;;0.77;0.10;;;;;;;16.89;93.42;99613.13;5023090;28;20442;-74
2022/10/15 00:43:59;;;;;;;0.43;0.20;;;;;;;16.87;93.36;99613.41;5005954;28;20866;-74
2022/10/15 00:46:34;;;;;;;1.00;0.20;;;;;;;16.88;93.42;99619.69;5029270;28;20387;-74
2022/10/15 00:49:04;;;;;;;2.10;0.13;;;;;;;16.91;93.40;99602.66;5014330;28;20497;-74
2022/10/15 00:51:34;;;;;;;1.00;0.15;;;;;;;16.94;93.34;99619.28;5007762;28;20435;-74
2022/10/15 00:54:00;;;;;;;0.20;0.07;;;;;;;16.91;93.42;99613.63;5008034;28;20391;-74
2022/10/15 00:56:26;;;;;;;1.40;0.20;;;;;;;16.88;93.78;99617.78;5029287;28;20423;-74
2022/10/15 00:58:53;;;;;;;1.20;0.10;;;;;;;16.89;93.98;99624.06;5016189;28;20503;-74
2022/10/15 01:01:19;;;;;;;1.30;0.10;;;;;;;16.88;93.89;99616.97;5005187;28;20498;-74
2022/10/15 01:03:44;;;;;;;1.13;0.20;;;;;;;16.87;94.13;99632.56;5029106;28;20470;-74
2022/10/15 01:06:10;;;;;;;1.40;0.10;;;;;;;16.85;94.26;99637.56;5029149;28;20924;-73
2022/10/15 01:08:35;;;;;;;0.33;0.10;;;;;;;16.87;94.44;99639.97;5024141;28;20407;-74
2022/10/15 01:11:35;;;;;;;2.10;0.20;;;;;;;16.87;94.34;99632.56;5008284;28;20418;-74
2022/10/15 01:14:12;;;;;;;0.85;0.47;;;;;;;16.88;94.48;99626.00;5014737;28;20394;-74
2022/10/15 01:16:45;;;;;;;0.75;0.10;;;;;;;16.91;94.31;99619.91;5009049;28;20823;-75
2022/10/15 01:19:56;;;;;;;1.83;0.20;;;;;;;16.94;94.19;99619.28;5002162;28;20701;-75
2022/10/15 01:22:40;;;;;;;2.53;0.20;;;;;;;16.92;94.37;99620.72;5028191;28;20498;-75
2022/10/15 01:25:15;;;;;;;1.00;0.40;;;;;;;16.92;94.57;99624.28;5002926;28;20399;-75
2022/10/15 01:27:48;;;;;;;1.20;0.30;;;;;;;16.96;94.48;99619.78;5015635;28;20391;-75
2022/10/15 01:30:18;;;;;;;1.50;0.30;;;;;;;16.96;94.60;99624.44;5028286;28;20383;-75
2022/10/15 01:32:43;;;;;;;0.50;0.20;;;;;;;16.96;94.56;99621.69;5027053;28;20413;-75
2022/10/15 01:35:33;;;;;;;1.20;0.10;;;;;;;16.94;94.85;99616.56;5018147;28;20441;-74
2022/10/15 01:38:04;;;;;;;0.80;0.10;;;;;;;16.93;95.18;99614.09;5020680;28;20470;-74
2022/10/15 01:40:35;;;;;;;0.22;0.10;;;;;;;16.92;95.38;99605.13;5022387;28;20417;-75
2022/10/15 01:43:11;;;;;;;3.80;0.40;;;;;;;16.92;95.55;99609.78;5018106;28;20398;-74
2022/10/15 01:45:42;;;;;;;1.92;0.10;;;;;;;16.92;95.59;99605.13;5015106;28;20418;-74
2022/10/15 01:48:10;;;;;;;0.55;0.10;;;;;;;16.95;95.48;99620.09;5018161;28;20784;-75
2022/10/15 01:50:42;;;;;;;1.45;0.22;;;;;;;16.96;95.66;99610.75;5000495;28;20407;-75
2022/10/15 01:53:10;;;;;;;0.50;0.17;;;;;;;16.92;95.78;99607.84;5017195;28;20403;-74
2022/10/15 01:55:40;;;;;;;1.33;0.22;;;;;;;16.96;95.65;99606.09;5027761;28;20426;-75
2022/10/15 01:58:06;;;;;;;1.23;0.20;;;;;;;17.01;95.26;99602.44;5024507;28;20429;-75
2022/10/15 02:00:31;;;;;;;0.43;0.20;;;;;;;17.00;95.36;99606.28;5022837;28;20774;-75
2022/10/15 02:03:01;;;;;;;1.30;0.20;;;;;;;16.99;95.65;99612.91;5013869;28;20411;-75
2022/10/15 02:05:34;;;;;;;0.70;0.20;;;;;;;16.94;95.96;99610.25;5018460;28;20399;-75
2022/10/15 02:08:12;;;;;;;2.63;0.27;;;;;;;16.95;95.98;99606.41;5023467;28;20432;-75
2022/10/15 02:10:59;;;;;;;1.00;0.37;;;;;;;16.97;96.00;99618.66;5027231;28;20490;-75
2022/10/15 02:13:38;;;;;;;1.95;0.40;;;;;;;16.96;96.19;99621.69;5028509;28;20437;-75
2022/10/15 02:16:12;;;;;;;6.20;0.65;;;;;;;16.97;96.29;99618.66;5019943;28;20941;-75
2022/10/15 02:18:45;;;;;;;1.98;0.20;;;;;;;16.99;96.28;99615.63;5001782;28;20408;-74
2022/10/15 02:21:15;;;;;;;0.90;0.20;;;;;;;16.97;96.33;99610.47;5020903;28;20874;-75
2022/10/15 02:24:05;;;;;;;1.30;0.40;;;;;;;16.96;96.40;99617.03;5025353;28;20401;-75
2022/10/15 02:26:30;;;;;;;0.40;0.35;;;;;;;17.02;96.16;99613.09;5016242;28;20410;-75
2022/10/15 02:28:58;;;;;;;0.77;0.20;;;;;;;17.03;96.06;99609.22;5017032;28;20494;-74
2022/10/15 02:31:28;;;;;;;1.40;0.13;;;;;;;16.99;96.35;99613.69;5026999;28;20794;-74
2022/10/15 02:33:57;;;;;;;0.28;0.10;;;;;;;17.00;96.20;99609.84;5016872;28;20817;-74
2022/10/15 02:36:23;;;;;;;0.15;0.13;;;;;;;17.02;95.92;99604.06;5004514;28;20406;-74
2022/10/15 02:38:50;;;;;;;2.70;0.10;;;;;;;17.02;96.24;99613.09;5005897;28;20446;-74
2022/10/15 02:41:16;;;;;;;0.38;0.17;;;;;;;17.04;96.05;99610.03;5025438;28;20399;-74
2022/10/15 02:43:42;;;;;;;2.90;0.20;;;;;;;17.03;96.10;99608.41;5031361;28;20482;-74
2022/10/15 02:46:10;;;;;;;2.00;0.10;;;;;;;17.03;96.05;99611.16;5026677;28;20521;-74
2022/10/15 02:48:35;;;;;;;1.63;0.10;;;;;;;17.05;96.04;99619.88;5016444;28;20400;-74
2022/10/15 02:51:01;;;;;;;0.00;0.00;;;;;;;17.09;95.96;99629.09;5018759;28;20406;-74
2022/10/15 02:53:26;;;;;;;0.90;0.10;;;;;;;17.08;95.92;99616.53;5030533;28;20399;-74
2022/10/15 02:55:51;;;;;;;1.20;0.10;;;;;;;17.07;95.98;99631.31;5023662;28;20894;-75
2022/10/15 02:58:16;;;;;;;0.50;0.50;;;;;;;17.10;95.83;99630.69;5020659;28;20418;-75
2022/10/15 03:00:42;;;;;;;1.10;0.97;;;;;;;17.11;95.84;99627.66;5012183;28;20422;-75
2022/10/15 03:03:07;;;;;;;0.40;0.40;;;;;;;17.11;95.88;99615.91;5026710;28;20451;-75
2022/10/15 03:05:34;;;;;;;0.60;0.60;;;;;;;17.11;95.67;99619.47;5016223;28;20445;-75
2022/10/15 03:07:59;;;;;;;0.75;0.40;;;;;;;17.09;96.06;99631.84;5024544;28;20414;-75
2022/10/15 03:10:25;;;;;;;1.75;0.20;;;;;;;17.11;96.06;99624.94;5022372;28;20404;-75
2022/10/15 03:12:50;;;;;;;0.63;0.50;;;;;;;17.12;96.00;99623.78;5025027;28;20399;-74
2022/10/15 03:15:15;;;;;;;0.43;0.33;;;;;;;17.10;96.02;99630.69;5016640;28;20806;-74
2022/10/15 03:17:41;;;;;;;1.23;0.27;;;;;;;17.04;96.53;99626.47;5031149;28;20399;-74
2022/10/15 03:20:06;;;;;;;2.20;0.20;;;;;;;17.01;96.68;99627.91;5020631;28;20836;-74
2022/10/15 03:22:31;;;;;;;2.40;0.60;;;;;;;17.00;96.62;99629.00;5041160;28;20407;-74
2022/10/15 03:24:57;;;;;;;0.90;0.20;;;;;;;17.00;96.81;99628.19;5008711;28;20423;-74
2022/10/15 03:27:22;;;;;;;0.47;0.00;;;;;;;17.02;96.50;99629.53;5018829;28;20398;-74
2022/10/15 03:29:47;;;;;;;3.10;0.13;;;;;;;17.10;96.23;99636.19;5024380;28;20397;-75
2022/10/15 03:32:13;;;;;;;0.90;0.20;;;;;;;17.11;96.10;99635.06;5023909;28;20453;-74
2022/10/15 03:34:38;;;;;;;1.40;0.37;;;;;;;17.16;95.82;99639.63;5013999;28;20872;-74
2022/10/15 03:37:03;;;;;;;1.30;0.30;;;;;;;17.19;95.49;99642.53;5030722;28;20399;-74
2022/10/15 03:39:29;;;;;;;0.70;0.20;;;;;;;17.20;95.31;99641.44;5022204;28;20461;-74
2022/10/15 03:41:54;;;;;;;0.40;0.20;;;;;;;17.19;95.19;99641.75;5021334;28;20402;-74
2022/10/15 03:44:19;;;;;;;0.80;0.30;;;;;;;17.20;95.26;99646.91;5020994;28;20449;-74
2022/10/15 03:46:45;;;;;;;1.43;0.30;;;;;;;17.19;95.32;99653.50;5020582;28;20486;-74
2022/10/15 03:49:10;;;;;;;2.30;0.20;;;;;;;17.20;95.09;99659.78;5022523;28;20413;-74
2022/10/15 03:51:36;;;;;;;1.20;0.17;;;;;;;17.22;95.13;99652.09;5019929;28;20829;-74
2022/10/15 03:54:01;;;;;;;0.15;0.15;;;;;;;17.22;95.16;99646.63;5023659;28;20399;-74
2022/10/15 03:56:26;;;;;;;0.60;0.30;;;;;;;17.21;94.99;99643.06;5014331;28;20482;-74
2022/10/15 03:58:52;;;;;;;5.00;0.50;;;;;;;17.18;95.00;99651.06;5007395;28;20414;-74
2022/10/15 04:01:18;;;;;;;1.30;0.30;;;;;;;17.19;95.10;99652.69;5021956;28;20414;-74
2022/10/15 04:03:43;;;;;;;1.10;0.20;;;;;;;17.17;95.03;99663.94;5028533;28;20438;-74
2022/10/15 04:06:08;;;;;;;2.83;0.80;;;;;;;17.13;95.23;99666.50;5007203;28;20416;-74
2022/10/15 04:08:34;;;;;;;1.73;0.30;;;;;;;17.13;95.34;99662.94;5016462;28;20882;-74
2022/10/15 04:10:59;;;;;;;2.27;0.30;;;;;;;17.14;95.25;99667.31;5029922;28;20402;-74
2022/10/15 04:13:26;;;;;;;2.93;0.30;;;;;;;17.17;95.14;99672.16;5029799;28;20507;-74
2022/10/15 04:15:51;;;;;;;6.20;0.52;;;;;;;17.16;95.02;99669.75;5007388;28;20522;-74
2022/10/15 04:18:16;;;;;;;0.88;0.20;;;;;;;17.16;95.25;99677.97;5029665;28;20510;-74
2022/10/15 04:20:42;;;;;;;0.37;0.20;;;;;;;17.16;95.10;99676.00;5027220;28;20480;-74
2022/10/15 04:23:08;;;;;;;1.70;0.20;;;;;;;17.18;95.16;99687.47;5022357;28;20433;-74
2022/10/15 04:25:35;;;;;;;1.30;0.40;;;;;;;17.15;95.19;99690.84;5011390;28;20466;-74
2022/10/15 04:28:03;;;;;;;1.73;0.20;;;;;;;17.16;95.10;99694.38;5029684;28;20526;-74
2022/10/15 04:30:29;;;;;;;1.80;0.30;;;;;;;17.17;95.10;99687.78;5029741;28;20421;-74
2022/10/15 04:32:54;;;;;;;1.00;0.20;;;;;;;17.11;95.21;99700.78;5020445;28;20387;-74
2022/10/15 04:35:20;;;;;;;0.20;0.20;;;;;;;17.05;95.74;99699.25;5014933;28;20751;-74
2022/10/15 04:37:45;;;;;;;4.90;0.40;;;;;;;17.10;95.43;99701.88;5013327;28;20947;-74
2022/10/15 04:40:11;;;;;;;0.60;0.20;;;;;;;17.04;95.93;99701.19;5029388;28;20481;-74
2022/10/15 04:42:37;;;;;;;2.63;1.00;;;;;;;17.10;95.22;99705.44;5029368;28;20395;-74
2022/10/15 04:45:02;;;;;;;1.73;0.20;;;;;;;17.06;95.24;99711.81;5027935;28;20410;-74
2022/10/15 04:47:28;;;;;;;0.40;0.40;;;;;;;17.04;95.41;99714.88;5021415;28;20408;-74
2022/10/15 04:49:53;;;;;;;0.50;0.20;;;;;;;17.04;95.45;99723.09;4999906;28;20408;-74
2022/10/15 04:52:18;;;;;;;1.80;0.30;;;;;;;17.06;95.47;99725.50;5019221;28;20953;-74
2022/10/15 04:54:44;;;;;;;2.47;0.53;;;;;;;17.11;95.23;99720.75;5026808;28;20387;-74
2022/10/15 04:57:10;;;;;;;5.33;0.30;;;;;;;17.13;94.78;99717.69;4998095;28;20425;-75
2022/10/15 04:59:35;;;;;;;4.20;0.50;;;;;;;17.12;94.84;99714.13;5028719;28;20418;-74
2022/10/15 05:02:00;;;;;;;0.90;0.20;;;;;;;17.12;94.48;99722.34;5012694;28;20435;-75
2022/10/15 05:04:25;;;;;;;2.87;0.53;;;;;;;17.12;94.37;99718.84;5016085;28;20404;-74
2022/10/15 05:06:51;;;;;;;1.70;0.30;;;;;;;17.13;94.27;99721.25;5019683;28;20755;-74
2022/10/15 05:09:16;;;;;;;1.70;0.30;;;;;;;17.15;94.17;99726.44;5012679;28;20418;-74
2022/10/15 05:11:41;;;;;;;1.40;0.20;;;;;;;17.16;93.89;99738.97;5029001;28;20398;-74
2022/10/15 05:14:07;;;;;;;1.70;0.50;;;;;;;17.13;93.80;99748.63;5027760;28;20810;-74
2022/10/15 05:16:32;;;;;;;1.10;0.30;;;;;;;17.12;93.91;99744.25;5027225;28;20391;-74
2022/10/15 05:19:00;;;;;;;6.10;0.53;;;;;;;17.10;93.79;99743.75;5019678;28;20405;-74
2022/10/15 05:21:27;;;;;;;1.30;0.30;;;;;;;17.06;94.10;99742.75;5019081;28;20413;-74
2022/10/15 05:23:52;;;;;;;0.90;0.30;;;;;;;17.06;93.94;99745.47;5007176;28;20460;-74
2022/10/15 05:26:20;;;;;;;0.53;0.50;;;;;;;17.04;94.07;99734.03;5008697;28;20453;-74
2022/10/15 05:28:46;;;;;;;0.43;0.43;;;;;;;17.01;94.03;99745.59;5026075;28;20787;-74
2022/10/15 05:31:20;;;;;;;0.93;0.30;;;;;;;17.04;93.90;99746.91;5016592;28;20429;-74
2022/10/15 05:33:47;;;;;;;1.30;0.30;;;;;;;16.99;93.89;99757.97;5028806;28;20391;-74
2022/10/15 05:36:18;;;;;;;2.33;2.22;;;;;;;16.94;94.01;99749.84;5025664;28;20478;-74
2022/10/15 05:38:45;;;;;;;1.40;0.73;;;;;;;16.89;94.15;99756.22;5024762;28;20408;-74
2022/10/15 05:41:11;;;;;;;1.60;0.60;;;;;;;16.90;94.08;99763.31;5002964;28;20465;-74
2022/10/15 05:43:36;;;;;;;0.70;0.70;;;;;;;16.88;94.24;99770.22;4999164;28;20878;-74
2022/10/15 05:46:01;;;;;;;2.50;0.70;;;;;;;16.87;94.01;99769.41;5021897;28;20406;-74
2022/10/15 05:48:27;;;;;;;3.53;0.50;;;;;;;16.85;94.16;99763.44;5027420;28;20399;-74
2022/10/15 05:50:52;;;;;;;1.57;0.37;;;;;;;16.88;93.90;99775.69;5028572;28;20399;-74
2022/10/15 05:53:18;;;;;;;0.53;0.53;;;;;;;16.91;93.66;99773.16;5009580;28;20400;-74
2022/10/15 05:55:43;;;;;;;0.65;0.35;;;;;;;16.89;93.68;99774.59;5008343;28;20912;-74
2022/10/15 05:58:08;;;;;;;3.77;0.40;;;;;;;16.86;93.66;99778.72;5015823;28;20852;-74
2022/10/15 06:00:34;;;;;;;1.60;0.40;;;;;;;16.87;93.62;99774.88;5008465;28;20417;-74
2022/10/15 06:02:59;;;;;;;2.80;0.38;;;;;;;16.86;93.45;99775.97;5017548;28;20402;-74
2022/10/15 06:05:25;;;;;;;4.30;1.23;;;;;;;16.81;93.70;99784.31;5015288;28;20399;-74
2022/10/15 06:07:50;;;;;;;0.80;0.80;;;;;;;16.85;93.68;99793.53;5002522;28;20993;-74
2022/10/15 06:10:16;;;;;;;1.30;0.60;;;;;;;16.86;93.43;99788.88;4993542;28;20418;-74
2022/10/15 06:12:42;;;;;;;2.38;1.20;;;;;;;16.88;93.61;99792.94;5016743;28;20822;-74
2022/10/15 06:15:08;;;;;;;1.42;0.80;;;;;;;16.84;93.51;99794.63;5007753;28;20415;-74
2022/10/15 06:17:33;;;;;;;1.88;0.68;;;;;;;16.87;93.77;99794.03;5016138;28;20503;-74
2022/10/15 06:19:59;;;;;;;1.80;0.80;;;;;;;16.91;93.54;99789.59;5030527;28;20415;-74
2022/10/15 06:22:24;;;;;;;1.00;0.60;;;;;;;16.91;93.35;99791.50;5018599;28;20480;-74
2022/10/15 06:24:49;;;;;;;3.00;0.55;;;;;;;16.90;93.44;99796.16;5001487;28;20414;-74
2022/10/15 06:27:14;;;;;;;1.80;0.67;;;;;;;16.89;93.63;99800.00;5010517;28;20472;-74
2022/10/15 06:29:40;;;;;;;2.47;0.50;;;;;;;16.92;93.57;99804.09;5014133;28;20404;-74
2022/10/15 06:32:10;;;;;;;1.47;0.80;;;;;;;16.91;93.42;99803.28;5001614;28;20401;-74
2022/10/15 06:34:35;;;;;;;1.20;0.63;;;;;;;16.91;93.65;99814.22;5011592;28;20467;-74
2022/10/15 06:37:00;;;;;;;3.00;0.60;;;;;;;16.93;93.54;99811.16;5015167;28;20498;-74
2022/10/15 06:39:26;;;;;;;4.63;0.57;;;;;;;16.90;93.68;99817.25;5014021;28;20420;-75
2022/10/15 06:41:51;;;;;;;1.17;0.57;;;;;;;16.91;93.66;99816.94;5009482;28;20415;-75
2022/10/15 06:44:16;;;;;;;1.90;0.60;;;;;;;16.88;93.78;99817.56;5008404;28;20772;-75
2022/10/15 06:46:41;;;;;;;5.17;1.03;;;;;;;16.94;93.52;99826.47;5008274;28;20469;-77
2022/10/15 06:49:07;;;;;;;0.50;0.33;;;;;;;17.03;93.61;99824.66;4999922;28;20860;-75
2022/10/15 06:51:32;;;;;;;1.75;0.52;;;;;;;17.12;93.21;99828.34;5000527;28;20411;-78
2022/10/15 06:53:58;;;;;;;2.00;0.60;;;;;;;17.15;93.04;99827.72;5007974;28;20768;-76
2022/10/15 06:56:23;;;;;;;4.47;0.60;;;;;;;17.17;92.88;99841.91;5013873;28;20396;-74
2022/10/15 06:58:48;;;;;;;0.80;0.70;;;;;;;17.15;93.13;99833.22;5011603;28;20440;-75
2022/10/15 07:01:13;;;;;;;4.37;0.70;;;;;;;17.13;93.17;99830.75;5000092;28;20417;-76
2022/10/15 07:03:40;;;;;;;6.90;0.50;;;;;;;17.14;93.39;99839.78;5007418;28;20892;-74
2022/10/15 07:06:07;;;;;;;4.13;0.98;;;;;;;17.13;93.43;99838.16;5000833;28;20449;-75
2022/10/15 07:08:33;;;;;;;1.58;0.47;;;;;;;17.13;93.29;99847.19;4998018;28;20419;-75
2022/10/15 07:11:07;;;;;;;1.92;0.47;;;;;;;17.16;93.29;99837.53;5000973;28;20410;-75
2022/10/15 07:13:33;;;;;;;2.15;0.55;;;;;;;17.17;93.31;99841.09;5005195;28;20473;-74
2022/10/15 07:16:03;;;;;;;3.00;0.50;;;;;;;17.18;93.29;99842.75;5005647;28;20404;-76
2022/10/15 07:18:28;;;;;;;1.30;0.45;;;;;;;17.22;93.02;99838.28;5011581;28;20416;-76
2022/10/15 07:20:56;;;;;;;2.70;0.57;;;;;;;17.22;93.34;99850.06;5003418;28;20785;-76
2022/10/15 07:23:21;;;;;;;0.75;0.60;;;;;;;17.23;93.31;99853.56;5010744;28;20441;-76
2022/10/15 07:25:46;;;;;;;2.30;0.73;;;;;;;17.22;93.25;99849.25;5018589;28;20493;-75
2022/10/15 07:28:12;;;;;;;0.80;0.57;;;;;;;17.21;93.62;99848.41;5028583;28;20723;-75
2022/10/15 07:30:37;;;;;;;4.00;0.40;;;;;;;17.22;93.36;99847.31;5004647;28;20505;-75
2022/10/15 07:33:02;;;;;;;0.60;0.40;;;;;;;17.24;93.33;99847.00;5020549;28;20412;-75
2022/10/15 07:35:28;;;;;;;2.75;0.40;;;;;;;17.24;93.31;99850.56;5016200;28;20486;-75
2022/10/15 07:37:54;;;;;;;3.23;1.00;;;;;;;17.24;93.33;99847.81;5008031;28;20811;-75
2022/10/15 07:40:22;;;;;;;0.93;0.60;;;;;;;17.27;93.31;99854.59;5004711;28;20542;-75
2022/10/15 07:42:55;;;;;;;3.75;0.68;;;;;;;17.30;93.49;99856.72;5007067;28;20399;-75
2022/10/15 07:45:21;;;;;;;1.83;0.60;;;;;;;17.33;93.11;99859.69;5025808;28;20466;-75
2022/10/15 07:47:46;;;;;;;2.22;0.50;;;;;;;17.30;93.26;99857.53;5025034;28;20467;-75
2022/10/15 07:50:11;;;;;;;1.37;0.47;;;;;;;17.35;93.26;99853.91;5003726;28;20412;-75
2022/10/15 07:52:37;;;;;;;1.90;0.60;;;;;;;17.33;93.24;99859.69;5008252;28;20425;-75
2022/10/15 07:55:02;;;;;;;1.03;0.40;;;;;;;17.36;93.39;99869.22;5007992;28;20462;-75
2022/10/15 07:57:28;;;;;;;0.80;0.50;;;;;;;17.35;93.30;99864.88;5003211;28;20786;-75
2022/10/15 07:59:53;;;;;;;1.55;0.32;;;;;;;17.36;93.37;99866.47;5009295;28;20416;-75
2022/10/15 08:02:19;;;;;;;1.50;0.50;;;;;;;17.36;93.51;99870.03;5008049;28;20403;-75
2022/10/15 08:04:44;;;;;;;0.45;0.45;;;;;;;17.37;93.52;99868.91;5005926;28;20887;-75
2022/10/15 08:07:10;;;;;;;1.30;0.33;;;;;;;17.38;93.41;99873.28;5006717;28;20502;-75
2022/10/15 08:09:35;;;;;;;1.20;0.60;;;;;;;17.39;93.42;99882.28;4997778;28;20416;-75
2022/10/15 08:12:00;;;;;;;1.10;0.50;;;;;;;17.42;93.28;99876.22;4997884;28;20886;-75
2022/10/15 08:14:26;;;;;;;0.40;0.40;;;;;;;17.46;93.23;99874.47;5012350;28;20747;-75
2022/10/15 08:16:51;;;;;;;0.80;0.35;;;;;;;17.46;93.16;99869.81;5009315;28;20395;-75
2022/10/15 08:19:17;;;;;;;3.67;0.50;;;;;;;17.47;93.03;99874.19;5008981;28;20419;-75
2022/10/15 08:21:43;;;;;;;0.60;0.50;;;;;;;17.50;92.98;99876.31;5006183;28;20406;-75
2022/10/15 08:24:09;;;;;;;1.00;0.50;;;;;;;17.49;93.07;99880.16;4999540;28;20809;-74
2022/10/15 08:26:35;;;;;;;1.33;0.63;;;;;;;17.49;92.98;99880.16;5010233;28;20449;-76
2022/10/15 08:29:01;;;;;;;0.70;0.50;;;;;;;17.52;93.22;99878.75;5000927;28;20405;-74
2022/10/15 08:31:26;;;;;;;0.90;0.50;;;;;;;17.54;93.03;99877.34;5004862;28;20481;-75
2022/10/15 08:33:52;;;;;;;1.95;0.50;;;;;;;17.53;93.10;99875.72;5003275;28;20412;-74
2022/10/15 08:36:18;;;;;;;2.00;0.80;;;;;;;17.48;93.13;99883.22;5001106;28;20457;-74
2022/10/15 08:38:44;;;;;;;1.50;0.60;;;;;;;17.45;93.32;99884.63;5007735;28;20414;-74
2022/10/15 08:41:36;;;;;;;2.50;0.50;;;;;;;17.44;93.41;99884.94;5010985;28;20413;-74
2022/10/15 08:44:02;;;;;;;4.85;0.50;;;;;;;17.42;93.49;99900.88;5010004;28;20419;-74
2022/10/15 08:46:39;;;;;;;0.80;0.32;;;;;;;17.38;93.60;99889.72;5003065;28;20399;-73
2022/10/15 08:49:12;;;;;;;0.90;0.30;;;;;;;17.40;93.63;99894.88;4999064;28;20429;-75
2022/10/15 08:51:43;;;;;;;8.27;0.50;;;;;;;17.43;93.60;99897.81;5012556;28;20410;-74
2022/10/15 08:54:15;;;;;;;0.63;0.32;;;;;;;17.41;93.50;99894.59;5003658;28;20417;-74
2022/10/15 08:56:46;;;;;;;2.70;0.45;;;;;;;17.44;93.43;99904.13;5001480;28;20409;-74
2022/10/15 08:59:43;;;;;;;0.98;0.40;;;;;;;17.43;93.50;99903.31;5003718;28;20398;-74
2022/10/15 09:02:17;;;;;;;1.30;0.30;;;;;;;17.47;93.49;99906.25;5009673;28;20403;-74
2022/10/15 09:05:00;;;;;;;1.85;0.32;;;;;;;17.50;93.35;99914.69;5010779;28;20410;-74
2022/10/15 09:07:42;;;;;;;2.80;0.40;;;;;;;17.49;93.48;99910.31;5002636;28;20418;-73
2022/10/15 09:10:13;;;;;;;4.00;0.70;;;;;;;17.54;93.53;99912.97;5006086;28;20466;-74
2022/10/15 09:12:52;;;;;;;3.20;0.30;;;;;;;17.61;93.34;99916.16;5003295;28;20904;-74
2022/10/15 09:15:19;;;;;;;2.20;0.50;;;;;;;17.74;92.96;99911.78;5012294;28;20507;-73
2022/10/15 09:17:47;;;;;;;2.10;0.40;;;;;;;17.84;92.53;99918.97;4999903;28;20422;-74
2022/10/15 09:20:16;;;;;;;1.73;0.40;;;;;;;17.93;92.32;99912.47;5013585;28;20456;-74
2022/10/15 09:22:43;;;;;;;7.73;0.83;;;;;;;17.95;92.17;99912.16;4998740;28;20789;-74
2022/10/15 09:25:20;;;;;;;2.50;0.40;;;;;;;17.96;92.09;99903.63;5003158;28;20415;-74
2022/10/15 09:27:47;;;;;;;2.60;1.77;;;;;;;18.04;92.03;99905.66;5001844;28;20420;-73
2022/10/15 09:30:32;;;;;;;2.05;0.50;;;;;;;18.19;91.63;99907.22;4998065;28;20417;-74
2022/10/15 09:33:21;;;;;;;3.50;0.47;;;;;;;18.39;90.68;99906.78;4995953;28;20465;-74
2022/10/15 09:36:03;;;;;;;2.70;0.43;;;;;;;18.44;89.94;99906.66;5000762;28;20742;-74
2022/10/15 09:38:48;;;;;;;1.67;0.30;;;;;;;18.40;90.08;99910.34;5000205;28;21093;-74
2022/10/15 09:41:45;;;;;;;2.38;0.60;;;;;;;18.42;89.58;99908.91;5012164;28;20464;-74
2022/10/15 09:44:13;;;;;;;1.10;0.30;;;;;;;18.46;89.41;99909.91;5014543;28;20409;-74
2022/10/15 09:46:47;;;;;;;4.00;0.47;;;;;;;18.45;89.24;99911.03;5014181;28;20424;-73
2022/10/15 09:49:18;;;;;;;0.70;0.45;;;;;;;18.39;89.24;99914.19;5016139;28;20410;-73
2022/10/15 09:51:46;;;;;;;0.85;0.60;;;;;;;18.39;88.82;99920.50;5013746;28;20414;-74
2022/10/15 09:54:36;;;;;;;1.73;0.43;;;;;;;18.39;88.73;99920.50;5004899;28;20410;-74
2022/10/15 09:57:02;;;;;;;2.92;0.60;;;;;;;18.32;88.96;99922.03;5016422;28;20411;-74
2022/10/15 09:59:27;;;;;;;2.77;0.57;;;;;;;18.28;88.97;99921.84;5007035;28;20415;-73
2022/10/15 10:02:03;;;;;;;0.73;0.70;;;;;;;18.34;88.91;99930.78;5018321;28;20455;-73
2022/10/15 10:04:33;;;;;;;1.40;0.75;;;;;;;18.27;89.01;99925.72;4996502;28;20433;-74
2022/10/15 10:07:06;;;;;;;4.47;1.08;;;;;;;18.27;88.84;99924.91;4996069;28;20533;-74
2022/10/15 10:09:52;;;;;;;1.50;1.25;;;;;;;18.26;88.75;99931.50;4996337;28;20426;-73
2022/10/15 10:12:22;;;;;;;3.70;2.47;;;;;;;18.22;88.82;99927.75;4999358;28;20416;-74
2022/10/15 10:14:58;;;;;;;3.05;1.80;;;;;;;18.23;88.90;99930.19;4999456;28;20555;-74
2022/10/15 10:17:25;;;;;;;2.10;0.75;;;;;;;18.38;88.53;99929.84;4998678;28;20504;-73
2022/10/15 10:20:06;;;;;;;2.45;1.42;;;;;;;18.54;87.67;99924.88;4998923;28;20423;-74
2022/10/15 10:22:48;;;;;;;7.85;1.83;;;;;;;18.78;87.01;99927.28;5029489;28;20770;-73
2022/10/15 10:25:29;;;;;;;4.38;1.70;;;;;;;18.91;86.07;99931.91;5001573;28;20459;-73
2022/10/15 10:28:10;;;;;;;3.30;1.58;;;;;;;18.90;85.58;99933.03;4996520;28;20468;-73
2022/10/15 10:31:05;;;;;;;2.13;0.88;;;;;;;18.80;85.91;99939.59;5008585;28;20438;-73
2022/10/15 10:33:43;;;;;;;4.07;1.50;;;;;;;18.77;85.87;99923.72;5016401;28;20399;-75
2022/10/15 10:36:29;;;;;;;3.83;1.98;;;;;;;18.86;85.45;99924.63;5000381;28;20402;-73
2022/10/15 10:39:05;;;;;;;2.15;0.75;;;;;;;18.97;85.25;99928.72;5007180;28;20407;-75
2022/10/15 10:41:52;;;;;;;4.03;1.90;;;;;;;19.00;84.81;99928.09;5012885;28;20460;-75
2022/10/15 10:44:38;;;;;;;2.60;1.10;;;;;;;19.02;84.98;99925.03;5009080;28;20817;-75
2022/10/15 10:47:06;;;;;;;2.03;0.55;;;;;;;19.06;84.72;99924.13;5005882;28;20400;-74
2022/10/15 10:49:51;;;;;;;1.27;0.60;;;;;;;19.12;84.04;99916.53;4994925;28;20465;-74
2022/10/15 10:52:31;;;;;;;3.97;0.83;;;;;;;19.04;83.87;99929.09;4997130;28;20411;-74
2022/10/15 10:55:01;;;;;;;2.00;0.90;;;;;;;18.98;83.79;99919.38;5002086;28;20483;-74
2022/10/15 10:57:37;;;;;;;3.60;0.70;;;;;;;19.01;83.64;99926.16;5023659;28;20902;-74
2022/10/15 11:00:04;;;;;;;1.10;0.50;;;;;;;18.99;83.17;99920.19;5004311;28;20443;-74
2022/10/15 11:02:32;;;;;;;2.90;0.80;;;;;;;18.91;83.17;99926.41;4996862;28;20890;-74
2022/10/15 11:04:57;;;;;;;3.53;1.00;;;;;;;18.88;83.39;99924.28;4996906;28;20421;-74
2022/10/15 11:07:53;;;;;;;3.60;1.53;;;;;;;18.79;83.07;99921.50;4994224;28;20412;-75
2022/10/15 11:10:33;;;;;;;3.65;0.82;;;;;;;18.74;83.04;99918.06;4990956;28;20441;-74
2022/10/15 11:13:29;;;;;;;2.83;1.00;;;;;;;18.60;83.73;99915.38;4992754;28;20413;-75
2022/10/15 11:16:22;;;;;;;1.50;0.70;;;;;;;18.53;83.98;99913.06;4993992;28;20448;-74
2022/10/15 11:18:55;;;;;;;1.52;1.00;;;;;;;18.53;84.09;99912.25;5004612;28;20408;-74
2022/10/15 11:21:46;;;;;;;3.05;1.30;;;;;;;18.60;83.84;99915.38;4992468;28;20424;-75
2022/10/15 11:24:26;;;;;;;6.05;1.92;;;;;;;18.57;83.85;99913.25;4995215;28;20454;-74
2022/10/15 11:27:11;;;;;;;8.30;1.52;;;;;;;18.52;84.03;99907.88;4992639;28;20464;-73
2022/10/15 11:30:09;;;;;;;8.27;2.42;;;;;;;18.60;83.68;99910.72;4995272;28;20425;-74
2022/10/15 11:32:56;;;;;;;2.15;0.82;;;;;;;18.69;82.90;99909.94;4992482;28;20413;-74
2022/10/15 11:35:42;;;;;;;5.70;1.45;;;;;;;18.71;82.48;99918.66;4993733;28;21160;-74
2022/10/15 11:38:21;;;;;;;4.90;1.00;;;;;;;18.67;82.20;99907.53;4990158;28;20420;-74
2022/10/15 11:41:06;;;;;;;1.73;1.08;;;;;;;18.58;82.19;99907.44;4993149;28;20913;-75
2022/10/15 11:43:51;;;;;;;3.38;0.60;;;;;;;18.54;81.68;99908.41;4988890;28;20429;-75
2022/10/15 11:46:24;;;;;;;7.07;2.05;;;;;;;18.60;81.47;99907.16;4993192;28;20415;-75